KFST/FST METAR and TAF weather

Enter ICAO airport designator
Station Type Date Time Source
KFST METAR 2019/10/23 02:53 UTC NOAA

KFST 230253Z AUTO 16009KT 10SM CLR 17/01 A3008 RMK AO2 SLP154 T01670011 58001


Station Type Date Time Source
KFST Decoded METAR 2019/10/23 02:53 UTC NOAA

FORT STOCKTON PECOS CO AIRPORT , TX, United States (KFST) 30-55N 102-55W 918M
Oct 22, 2019 - 10:53 PM EDT / 2019.10.23 0253 UTC
Wind: from the SSE (160 degrees) at 10 MPH (9 KT):0
Visibility: 10 mile(s):0
Sky conditions: clear
Temperature: 62.1 F (16.7 C)
Dew Point: 34.0 F (1.1 C)
Relative Humidity: 34%
Pressure (altimeter): 30.08 in. Hg (1018 hPa)
Pressure tendency: 0.00 inches (0.1 hPa) lower than three hours ago
ob: KFST 230253Z AUTO 16009KT 10SM CLR 17/01 A3008 RMK AO2 SLP154 T01670011 58001
cycle: 3

Station Type Date Time Source
KFST TAF 2019/10/22 18:30 UTC NOAA

TAF KFST 221727Z 2218/2318 15005KT P6SM SKC
FM230300 16013KT P6SM SKC

Example: see airport list